createdAt,value
2017-12-06T00:00:28.027Z,24.2
2017-12-06T00:01:36.114Z,24.2
2017-12-06T00:02:44.323Z,24.2
2017-12-06T00:03:52.411Z,24.2
2017-12-06T00:05:00.501Z,24.1
2017-12-06T00:06:08.586Z,24.2
2017-12-06T00:07:16.673Z,24.2
2017-12-06T00:08:24.762Z,24.2
2017-12-06T00:09:32.849Z,24.3
2017-12-06T00:10:40.945Z,24.2
2017-12-06T00:11:49.030Z,24.3
2017-12-06T00:12:57.127Z,24.3
2017-12-06T00:14:05.206Z,24.2
2017-12-06T00:15:13.293Z,24.2
2017-12-06T00:16:21.384Z,24.2
2017-12-06T00:17:29.482Z,24.3
2017-12-06T00:18:37.573Z,24.3
2017-12-06T00:19:45.657Z,24.3
2017-12-06T00:20:53.742Z,24.3
2017-12-06T00:22:01.832Z,24.3
2017-12-06T00:23:09.919Z,24.3
2017-12-06T00:24:18.008Z,24.3
2017-12-06T00:25:26.093Z,24.3
2017-12-06T00:26:34.180Z,24.3
2017-12-06T00:27:42.269Z,24.3
2017-12-06T00:28:50.359Z,24.3
2017-12-06T00:29:58.445Z,24.3
2017-12-06T00:31:06.542Z,24.3
2017-12-06T00:32:14.617Z,24.4
2017-12-06T00:33:22.704Z,24.4
2017-12-06T00:34:30.793Z,24.4
2017-12-06T00:35:38.958Z,24.4
2017-12-06T00:36:46.967Z,24.4
2017-12-06T00:37:55.059Z,24.3
2017-12-06T00:39:03.149Z,24.4
2017-12-06T00:40:11.238Z,24.3
2017-12-06T00:41:19.323Z,24.4
2017-12-06T00:42:27.413Z,24.3
2017-12-06T00:43:35.501Z,24.4
2017-12-06T00:44:43.587Z,24.5
2017-12-06T00:45:51.673Z,24.4
2017-12-06T00:46:59.761Z,24.5
2017-12-06T00:48:07.848Z,24.4
2017-12-06T00:49:15.934Z,24.3
2017-12-06T00:50:24.026Z,24.5
2017-12-06T00:51:32.110Z,24.5
2017-12-06T00:52:40.199Z,24.3
2017-12-06T00:53:48.287Z,24.4
2017-12-06T00:54:56.375Z,24.4
2017-12-06T00:56:04.462Z,24.4
2017-12-06T00:57:12.551Z,24.5
2017-12-06T00:58:20.636Z,24.4
2017-12-06T00:59:28.726Z,24.4
2017-12-06T01:00:36.811Z,24.5
2017-12-06T01:01:44.896Z,24.5
2017-12-06T01:02:52.988Z,24.5
2017-12-06T01:04:01.075Z,24.4
2017-12-06T01:05:09.164Z,24.3
2017-12-06T01:06:17.249Z,24.4
2017-12-06T01:07:25.348Z,24.5
2017-12-06T01:08:33.440Z,24.4
2017-12-06T01:09:41.525Z,24.5
2017-12-06T01:10:49.614Z,24.3
2017-12-06T01:11:57.712Z,24.5
2017-12-06T01:13:05.791Z,24.5
2017-12-06T01:14:13.887Z,24.4
2017-12-06T01:15:21.967Z,24.4
2017-12-06T01:16:30.054Z,24.4
2017-12-06T01:17:38.162Z,24.4
2017-12-06T01:18:46.248Z,24.4
2017-12-06T01:19:54.341Z,24.4
2017-12-06T01:21:02.427Z,24.4
2017-12-06T01:22:10.654Z,24.4
2017-12-06T01:23:18.713Z,24.4
2017-12-06T01:24:26.801Z,24.4
2017-12-06T01:25:34.905Z,24.4
2017-12-06T01:26:42.978Z,24.4
2017-12-06T01:27:51.065Z,24.4
2017-12-06T01:28:59.154Z,24.4
2017-12-06T01:30:07.261Z,24.4
2017-12-06T01:31:15.331Z,24.4
2017-12-06T01:32:23.411Z,24.3
2017-12-06T01:33:31.499Z,24.3
2017-12-06T01:34:39.588Z,24.3
2017-12-06T01:35:47.674Z,24.3
2017-12-06T01:36:55.769Z,24.3
2017-12-06T01:38:03.864Z,24.3
2017-12-06T01:39:11.948Z,24.4
2017-12-06T01:40:20.033Z,24.3
2017-12-06T01:41:29.039Z,24.3
2017-12-06T01:42:36.929Z,24.3
2017-12-06T01:43:45.016Z,24.4
2017-12-06T01:44:53.111Z,24.3
2017-12-06T01:46:01.193Z,24.3
2017-12-06T01:47:09.281Z,24.3
2017-12-06T01:48:17.371Z,24.3
2017-12-06T01:49:25.460Z,24.2
2017-12-06T01:50:33.541Z,24.2
2017-12-06T01:51:41.628Z,24.2
2017-12-06T01:52:49.718Z,24.2
2017-12-06T01:53:57.814Z,24.2
2017-12-06T01:55:05.896Z,24.2
2017-12-06T01:56:13.977Z,24.2
2017-12-06T01:57:22.067Z,24.2
2017-12-06T01:58:30.157Z,24.2
2017-12-06T01:59:38.242Z,24.2
2017-12-06T02:00:46.563Z,24.1
2017-12-06T02:01:54.647Z,24.2
2017-12-06T02:03:02.739Z,24.1
2017-12-06T02:04:10.827Z,24.2
2017-12-06T02:05:18.913Z,24.2
2017-12-06T02:06:27.001Z,24.1
2017-12-06T02:07:35.088Z,24.1
2017-12-06T02:08:43.176Z,24.1
2017-12-06T02:09:51.263Z,24.1
2017-12-06T02:10:59.355Z,24.1
2017-12-06T02:12:07.439Z,24.1
2017-12-06T02:13:15.527Z,24.1
2017-12-06T02:14:23.616Z,24.0
2017-12-06T02:15:31.701Z,24.0
2017-12-06T02:16:39.788Z,24.0
2017-12-06T02:17:47.877Z,24.1
2017-12-06T02:18:55.963Z,24.0
2017-12-06T02:20:04.053Z,24.1
2017-12-06T02:21:12.139Z,24.0
2017-12-06T02:22:20.224Z,24.0
2017-12-06T02:23:28.313Z,24.1
2017-12-06T02:24:36.410Z,24.0
2017-12-06T02:25:44.490Z,24.0
2017-12-06T02:26:52.580Z,23.9
2017-12-06T02:28:00.674Z,23.9
2017-12-06T02:29:08.762Z,23.9
2017-12-06T02:30:16.851Z,23.9
2017-12-06T02:31:24.938Z,23.9
2017-12-06T02:32:33.026Z,23.9
2017-12-06T02:33:41.115Z,23.9
2017-12-06T02:34:49.715Z,23.9
2017-12-06T02:35:57.860Z,23.9
2017-12-06T02:37:05.944Z,23.9
2017-12-06T02:38:14.038Z,23.9
2017-12-06T02:39:22.120Z,23.9
2017-12-06T02:40:30.208Z,23.8
2017-12-06T02:41:38.296Z,23.8
2017-12-06T02:42:46.383Z,23.8
2017-12-06T02:43:54.469Z,23.9
2017-12-06T02:45:02.557Z,23.8
2017-12-06T02:46:10.645Z,23.8
2017-12-06T02:47:18.730Z,23.7
2017-12-06T02:48:26.822Z,23.8
2017-12-06T02:49:34.907Z,23.7
2017-12-06T02:50:42.997Z,23.7
2017-12-06T02:51:51.085Z,23.7
2017-12-06T02:52:59.171Z,23.8
2017-12-06T02:54:07.263Z,23.6
2017-12-06T02:55:15.346Z,23.7
2017-12-06T02:56:23.435Z,23.6
2017-12-06T02:57:31.520Z,23.6
2017-12-06T02:58:39.606Z,23.6
2017-12-06T02:59:47.712Z,23.6
2017-12-06T03:00:55.781Z,23.6
2017-12-06T03:02:03.868Z,23.6
2017-12-06T03:03:11.961Z,23.5
2017-12-06T03:04:20.044Z,23.6
2017-12-06T03:05:28.132Z,23.5
2017-12-06T03:06:36.222Z,23.5
2017-12-06T03:07:44.315Z,23.6
2017-12-06T03:08:52.399Z,23.6
2017-12-06T03:10:00.500Z,23.6
2017-12-06T03:11:08.580Z,23.5
2017-12-06T03:12:16.667Z,23.5
2017-12-06T03:13:24.763Z,23.4
2017-12-06T03:14:32.872Z,23.5
2017-12-06T03:15:40.936Z,23.4
2017-12-06T03:16:49.027Z,23.3
2017-12-06T03:17:57.111Z,23.5
2017-12-06T03:19:05.199Z,23.4
2017-12-06T03:20:13.291Z,23.4
2017-12-06T03:21:21.374Z,23.3
2017-12-06T03:22:29.459Z,23.4
2017-12-06T03:23:37.553Z,23.3
2017-12-06T03:24:45.640Z,23.3
2017-12-06T03:25:53.728Z,23.4
2017-12-06T03:27:01.828Z,23.3
2017-12-06T03:28:09.911Z,23.3
2017-12-06T03:29:17.999Z,23.3
2017-12-06T03:30:26.086Z,23.3
2017-12-06T03:31:34.180Z,23.3
2017-12-06T03:32:42.266Z,23.3
2017-12-06T03:33:50.364Z,23.2
2017-12-06T03:34:58.443Z,23.2
2017-12-06T03:36:06.531Z,23.2
2017-12-06T03:37:14.618Z,23.1
2017-12-06T03:38:22.704Z,23.2
2017-12-06T03:39:30.789Z,23.1
2017-12-06T03:40:38.879Z,23.2
2017-12-06T03:41:46.977Z,23.1
2017-12-06T03:42:55.061Z,23.2
2017-12-06T03:44:03.151Z,23.1
2017-12-06T03:45:11.236Z,23.1
2017-12-06T03:46:19.323Z,23.1
2017-12-06T03:47:27.409Z,23.1
2017-12-06T03:48:35.504Z,23.1
2017-12-06T03:49:43.584Z,23.0
2017-12-06T03:50:51.674Z,23.0
2017-12-06T03:51:59.756Z,22.9
2017-12-06T03:53:07.846Z,23.0
2017-12-06T03:54:15.933Z,22.9
2017-12-06T03:55:24.020Z,22.9
2017-12-06T03:56:32.107Z,22.9
2017-12-06T03:57:40.190Z,22.9
2017-12-06T03:58:48.276Z,22.9
2017-12-06T03:59:56.362Z,22.9
2017-12-06T04:01:04.451Z,22.9
2017-12-06T04:02:12.536Z,22.9
2017-12-06T04:03:20.623Z,22.8
2017-12-06T04:04:28.710Z,22.9
2017-12-06T04:05:36.798Z,22.8
2017-12-06T04:06:44.882Z,22.8
2017-12-06T04:07:52.970Z,22.8
2017-12-06T04:09:01.077Z,22.8
2017-12-06T04:10:09.144Z,22.8
2017-12-06T04:11:17.232Z,22.8
2017-12-06T04:12:25.318Z,22.8
2017-12-06T04:13:33.404Z,22.6
2017-12-06T04:14:41.490Z,22.6
2017-12-06T04:15:49.586Z,22.6
2017-12-06T04:16:57.678Z,22.6
2017-12-06T04:18:05.758Z,22.6
2017-12-06T04:19:13.866Z,22.6
2017-12-06T04:20:21.942Z,22.6
2017-12-06T04:21:30.028Z,22.6
2017-12-06T04:22:38.123Z,22.6
2017-12-06T04:23:46.210Z,22.6
2017-12-06T04:24:54.823Z,22.6
2017-12-06T04:26:02.910Z,22.5
2017-12-06T04:27:11.014Z,22.5
2017-12-06T04:28:19.080Z,22.5
2017-12-06T04:29:27.168Z,22.5
2017-12-06T04:30:35.301Z,22.5
2017-12-06T04:31:43.340Z,22.4
2017-12-06T04:32:51.425Z,22.4
2017-12-06T04:33:59.518Z,22.3
2017-12-06T04:35:07.600Z,22.4
2017-12-06T04:36:15.684Z,22.3
2017-12-06T04:37:23.770Z,22.4
2017-12-06T04:38:31.864Z,22.3
2017-12-06T04:39:39.944Z,22.3
2017-12-06T04:40:48.041Z,22.3
2017-12-06T04:41:56.115Z,22.3
2017-12-06T04:43:04.204Z,22.2
2017-12-06T04:44:12.290Z,22.2
2017-12-06T04:45:20.374Z,22.2
2017-12-06T04:46:28.463Z,22.2
2017-12-06T04:47:36.554Z,22.2
2017-12-06T04:48:44.639Z,22.1
2017-12-06T04:49:52.729Z,22.1
2017-12-06T04:51:00.822Z,22.1
2017-12-06T04:52:08.892Z,22.1
2017-12-06T04:53:16.985Z,22.1
2017-12-06T04:54:25.078Z,22.0
2017-12-06T04:55:33.155Z,22.0
2017-12-06T04:56:41.667Z,22.0
2017-12-06T04:57:49.753Z,22.0
2017-12-06T04:58:57.839Z,22.0
2017-12-06T05:00:05.927Z,21.9
2017-12-06T05:01:14.013Z,21.9
2017-12-06T05:02:22.103Z,21.9
2017-12-06T05:03:30.185Z,21.9
2017-12-06T05:04:38.272Z,21.9
2017-12-06T05:05:46.358Z,21.9
2017-12-06T05:06:54.443Z,21.8
2017-12-06T05:08:02.539Z,21.8
2017-12-06T05:09:10.612Z,21.8
2017-12-06T05:10:18.818Z,21.8
2017-12-06T05:11:26.914Z,21.7
2017-12-06T05:12:35.002Z,21.7
2017-12-06T05:13:43.086Z,21.7
2017-12-06T05:14:51.171Z,21.7
2017-12-06T05:15:59.257Z,21.7
2017-12-06T05:17:07.346Z,21.7
2017-12-06T05:18:15.429Z,21.6
2017-12-06T05:19:23.523Z,21.6
2017-12-06T05:20:31.610Z,21.6
2017-12-06T05:21:39.774Z,21.7
2017-12-06T05:22:47.860Z,21.6
2017-12-06T05:23:55.954Z,21.6
2017-12-06T05:25:04.030Z,21.6
2017-12-06T05:26:12.115Z,21.7
2017-12-06T05:27:20.201Z,21.6
2017-12-06T05:28:28.286Z,21.6
2017-12-06T05:29:36.373Z,21.5
2017-12-06T05:30:44.456Z,21.6
2017-12-06T05:31:52.553Z,21.5
2017-12-06T05:33:00.631Z,21.4
2017-12-06T05:34:08.718Z,21.5
2017-12-06T05:35:16.817Z,21.4
2017-12-06T05:36:24.888Z,21.4
2017-12-06T05:37:32.987Z,21.4
2017-12-06T05:38:41.070Z,21.3
2017-12-06T05:39:49.155Z,21.3
2017-12-06T05:40:57.251Z,21.4
2017-12-06T05:42:05.365Z,21.3
2017-12-06T05:43:13.450Z,21.3
2017-12-06T05:44:21.536Z,21.3
2017-12-06T05:45:29.624Z,21.3
2017-12-06T05:46:37.741Z,21.3
2017-12-06T05:47:45.796Z,21.3
2017-12-06T05:48:53.882Z,21.2
2017-12-06T05:50:01.974Z,21.3
2017-12-06T05:51:10.059Z,21.3
2017-12-06T05:52:18.146Z,21.1
2017-12-06T05:53:26.766Z,21.2
2017-12-06T05:54:34.328Z,21.2
2017-12-06T05:55:42.412Z,21.1
2017-12-06T05:56:50.510Z,21.2
2017-12-06T05:57:58.593Z,21.3
2017-12-06T05:59:06.680Z,21.1
2017-12-06T06:00:14.765Z,21.2
2017-12-06T06:01:22.855Z,21.2
2017-12-06T06:02:31.023Z,21.2
2017-12-06T06:03:39.104Z,21.2
2017-12-06T06:04:47.190Z,21.2
2017-12-06T06:05:55.283Z,21.2
2017-12-06T06:07:03.368Z,21.2
2017-12-06T06:08:11.452Z,21.1
2017-12-06T06:09:19.566Z,21.2
2017-12-06T06:10:27.626Z,21.2
2017-12-06T06:11:35.706Z,21.2
2017-12-06T06:12:43.796Z,21.2
2017-12-06T06:13:51.878Z,21.2
2017-12-06T06:14:59.961Z,21.2
2017-12-06T06:16:08.048Z,21.1
2017-12-06T06:17:16.139Z,21.2
2017-12-06T06:18:24.220Z,21.2
2017-12-06T06:19:32.305Z,21.1
2017-12-06T06:20:40.388Z,21.1
2017-12-06T06:21:48.475Z,21.2
2017-12-06T06:22:56.560Z,21.2
2017-12-06T06:24:04.654Z,21.2
2017-12-06T06:25:12.731Z,21.2
2017-12-06T06:26:20.815Z,21.2
2017-12-06T06:27:28.904Z,21.2
2017-12-06T06:28:36.991Z,21.1
2017-12-06T06:29:45.074Z,21.2
2017-12-06T06:30:53.157Z,21.1
2017-12-06T06:32:01.254Z,21.2
2017-12-06T06:33:09.405Z,21.2
2017-12-06T06:34:17.416Z,21.1
2017-12-06T06:35:25.501Z,21.2
2017-12-06T06:36:33.583Z,21.2
2017-12-06T06:37:41.671Z,21.1
2017-12-06T06:38:49.758Z,21.1
2017-12-06T06:39:57.841Z,21.2
2017-12-06T06:41:05.930Z,21.2
2017-12-06T06:42:14.017Z,21.2
2017-12-06T06:43:22.098Z,21.2
2017-12-06T06:44:30.183Z,21.2
2017-12-06T06:45:38.270Z,21.2
2017-12-06T06:46:46.353Z,21.2
2017-12-06T06:47:54.440Z,21.2
2017-12-06T06:49:02.525Z,21.2
2017-12-06T06:50:10.612Z,21.1
2017-12-06T06:51:18.698Z,21.1
2017-12-06T06:52:26.782Z,21.2
2017-12-06T06:53:34.867Z,21.1
2017-12-06T06:54:42.953Z,21.1
2017-12-06T06:55:51.049Z,21.1
2017-12-06T06:56:59.134Z,21.1
2017-12-06T06:58:07.221Z,21.1
2017-12-06T06:59:15.305Z,21.2
2017-12-06T07:00:23.390Z,21.2
2017-12-06T07:01:31.476Z,21.2
2017-12-06T07:02:39.564Z,21.2
2017-12-06T07:03:47.651Z,21.2
2017-12-06T07:04:55.735Z,21.3
2017-12-06T07:06:03.822Z,21.3
2017-12-06T07:07:11.912Z,21.3
2017-12-06T07:08:19.993Z,21.4
2017-12-06T07:09:28.079Z,21.2
2017-12-06T07:10:36.183Z,21.3
2017-12-06T07:11:44.251Z,21.4
2017-12-06T07:12:52.334Z,21.3
2017-12-06T07:14:00.420Z,21.3
2017-12-06T07:15:08.527Z,21.4
2017-12-06T07:16:16.595Z,21.4
2017-12-06T07:17:24.680Z,21.3
2017-12-06T07:18:32.767Z,21.3
2017-12-06T07:19:40.852Z,21.4
2017-12-06T07:20:48.937Z,21.3
2017-12-06T07:21:57.023Z,21.3
2017-12-06T07:23:05.109Z,21.3
2017-12-06T07:24:13.194Z,21.3
2017-12-06T07:25:21.278Z,21.4
2017-12-06T07:26:29.384Z,21.4
2017-12-06T07:27:37.450Z,21.4
2017-12-06T07:28:45.536Z,21.4
2017-12-06T07:29:53.620Z,21.3
2017-12-06T07:31:01.708Z,21.4
2017-12-06T07:32:09.790Z,21.4
2017-12-06T07:33:17.877Z,21.4
2017-12-06T07:34:25.964Z,21.4
2017-12-06T07:35:34.050Z,21.4
2017-12-06T07:36:42.140Z,21.4
2017-12-06T07:37:50.221Z,21.4
2017-12-06T07:38:58.306Z,21.5
2017-12-06T07:40:06.395Z,21.4
2017-12-06T07:41:14.480Z,21.4
2017-12-06T07:42:22.565Z,21.5
2017-12-06T07:43:30.649Z,21.5
2017-12-06T07:44:38.786Z,21.4
2017-12-06T07:45:46.838Z,21.5
2017-12-06T07:46:54.913Z,21.4
2017-12-06T07:48:02.994Z,21.5
2017-12-06T07:49:11.080Z,21.5
2017-12-06T07:50:19.164Z,21.4
2017-12-06T07:51:27.249Z,21.5
2017-12-06T07:52:35.334Z,21.4
2017-12-06T07:53:43.421Z,21.5
2017-12-06T07:54:51.508Z,21.5
2017-12-06T07:55:59.597Z,21.5
2017-12-06T07:57:07.679Z,21.5
2017-12-06T07:58:15.766Z,21.5
2017-12-06T07:59:23.850Z,21.5
2017-12-06T08:00:31.933Z,21.5
2017-12-06T08:01:40.028Z,21.5
2017-12-06T08:02:48.108Z,21.5
2017-12-06T08:03:56.192Z,21.5
2017-12-06T08:05:04.277Z,21.5
2017-12-06T08:06:12.371Z,21.5
2017-12-06T08:07:20.456Z,21.5
2017-12-06T08:08:28.785Z,21.5
2017-12-06T08:09:36.872Z,21.5
2017-12-06T08:10:44.957Z,21.5
2017-12-06T08:11:53.040Z,21.5
2017-12-06T08:13:01.126Z,21.5
2017-12-06T08:14:09.211Z,21.5
2017-12-06T08:15:17.298Z,21.5
2017-12-06T08:16:25.383Z,21.5
2017-12-06T08:17:33.479Z,21.5
2017-12-06T08:18:41.564Z,21.5
2017-12-06T08:19:49.837Z,21.5
2017-12-06T08:20:57.923Z,21.6
2017-12-06T08:22:06.008Z,21.5
2017-12-06T08:23:14.096Z,21.5
2017-12-06T08:24:22.180Z,21.5
2017-12-06T08:25:30.272Z,21.5
2017-12-06T08:26:38.358Z,21.5
2017-12-06T08:27:46.445Z,21.5
2017-12-06T08:28:54.530Z,21.5
2017-12-06T08:30:02.616Z,21.5
2017-12-06T08:31:10.703Z,21.5
2017-12-06T08:32:18.790Z,21.5
2017-12-06T08:33:26.875Z,21.5
2017-12-06T08:34:34.963Z,21.5
2017-12-06T08:35:43.115Z,21.4
2017-12-06T08:36:51.134Z,21.5
2017-12-06T08:37:59.217Z,21.5
2017-12-06T08:39:07.308Z,21.4
2017-12-06T08:40:15.389Z,21.4
2017-12-06T08:41:23.477Z,21.4
2017-12-06T08:42:31.681Z,21.4
2017-12-06T08:43:39.763Z,21.4
2017-12-06T08:44:47.862Z,21.4
2017-12-06T08:45:55.946Z,21.4
2017-12-06T08:47:04.036Z,21.4
2017-12-06T08:48:12.120Z,21.4
2017-12-06T08:49:20.207Z,21.4
2017-12-06T08:50:28.289Z,21.4
2017-12-06T08:51:36.375Z,21.4
2017-12-06T08:52:44.465Z,21.4
2017-12-06T08:53:52.546Z,21.4
2017-12-06T08:55:00.636Z,21.4
2017-12-06T08:56:08.721Z,21.3
2017-12-06T08:57:16.808Z,21.4
2017-12-06T08:58:24.893Z,21.4
2017-12-06T08:59:32.979Z,21.3
2017-12-06T09:00:41.066Z,21.3
2017-12-06T09:01:49.152Z,21.4
2017-12-06T09:02:57.238Z,21.4
2017-12-06T09:04:05.324Z,21.3
2017-12-06T09:05:13.407Z,21.3
2017-12-06T09:06:21.493Z,21.4
2017-12-06T09:07:29.581Z,21.3
2017-12-06T09:08:37.678Z,21.4
2017-12-06T09:09:45.763Z,21.3
2017-12-06T09:10:53.850Z,21.4
2017-12-06T09:12:01.934Z,21.3
2017-12-06T09:13:10.021Z,21.3
2017-12-06T09:14:18.108Z,21.3
2017-12-06T09:15:26.218Z,21.3
2017-12-06T09:16:34.279Z,21.3
2017-12-06T09:17:42.363Z,21.2
2017-12-06T09:18:50.457Z,21.3
2017-12-06T09:19:58.536Z,21.3
2017-12-06T09:21:06.620Z,21.2
2017-12-06T09:22:14.708Z,21.3
2017-12-06T09:23:22.792Z,21.3
2017-12-06T09:24:30.879Z,21.2
2017-12-06T09:25:38.966Z,21.3
2017-12-06T09:26:47.050Z,21.3
2017-12-06T09:27:55.142Z,21.2
2017-12-06T09:29:03.227Z,21.2
2017-12-06T09:30:11.313Z,21.2
2017-12-06T09:31:19.399Z,21.2
2017-12-06T09:32:27.486Z,21.2
2017-12-06T09:33:35.572Z,21.2
2017-12-06T09:34:43.659Z,21.1
2017-12-06T09:35:51.744Z,21.2
2017-12-06T09:36:59.829Z,21.2
2017-12-06T09:38:07.916Z,21.2
2017-12-06T09:39:16.004Z,21.2
2017-12-06T09:40:24.089Z,21.1
2017-12-06T09:41:32.174Z,21.1
2017-12-06T09:42:40.264Z,21.1
2017-12-06T09:43:48.349Z,21.1
2017-12-06T09:44:56.433Z,21.0
2017-12-06T09:46:04.518Z,21.0
2017-12-06T09:47:12.603Z,21.0
2017-12-06T09:48:20.708Z,21.1
2017-12-06T09:49:28.782Z,21.1
2017-12-06T09:50:36.863Z,21.1
2017-12-06T09:51:44.949Z,21.0
2017-12-06T09:52:53.052Z,21.1
2017-12-06T09:54:01.120Z,21.1
2017-12-06T09:55:09.203Z,21.1
2017-12-06T09:56:17.288Z,21.0
2017-12-06T09:57:25.380Z,21.1
2017-12-06T09:58:33.459Z,21.0
2017-12-06T09:59:41.548Z,21.0
2017-12-06T10:00:49.633Z,21.1
2017-12-06T10:01:57.719Z,21.0
2017-12-06T10:03:05.809Z,21.0
2017-12-06T10:04:13.895Z,21.0
2017-12-06T10:05:21.973Z,20.9
2017-12-06T10:06:30.058Z,20.9
2017-12-06T10:07:38.154Z,20.9
2017-12-06T10:08:46.230Z,20.9
2017-12-06T10:09:54.627Z,20.9
2017-12-06T10:11:02.712Z,20.9
2017-12-06T10:12:10.797Z,20.9
2017-12-06T10:13:18.884Z,20.9
2017-12-06T10:14:26.967Z,20.9
2017-12-06T10:15:35.052Z,20.9
2017-12-06T10:16:43.142Z,20.9
2017-12-06T10:17:51.234Z,20.9
2017-12-06T10:18:59.318Z,20.9
2017-12-06T10:20:07.402Z,20.9
2017-12-06T10:21:15.482Z,20.9
2017-12-06T10:22:23.568Z,20.8
2017-12-06T10:23:31.657Z,20.8
2017-12-06T10:24:39.739Z,20.8
2017-12-06T10:25:47.831Z,20.8
2017-12-06T10:26:55.909Z,20.8
2017-12-06T10:28:03.995Z,20.8
2017-12-06T10:29:12.138Z,20.8
2017-12-06T10:30:20.166Z,20.8
2017-12-06T10:31:28.255Z,20.9
2017-12-06T10:32:36.336Z,20.8
2017-12-06T10:33:44.421Z,20.7
2017-12-06T10:34:52.504Z,20.7
2017-12-06T10:36:00.597Z,20.7
2017-12-06T10:37:08.675Z,20.7
2017-12-06T10:38:16.761Z,20.7
2017-12-06T10:39:24.858Z,20.7
2017-12-06T10:40:32.933Z,20.7
2017-12-06T10:41:41.018Z,20.7
2017-12-06T10:42:49.101Z,20.7
2017-12-06T10:43:57.209Z,20.7
2017-12-06T10:45:05.276Z,20.7
2017-12-06T10:46:13.360Z,20.7
2017-12-06T10:47:21.446Z,20.6
2017-12-06T10:48:29.530Z,20.6
2017-12-06T10:49:37.616Z,20.6
2017-12-06T10:50:45.698Z,20.6
2017-12-06T10:51:53.785Z,20.5
2017-12-06T10:53:01.874Z,20.5
2017-12-06T10:54:09.956Z,20.6
2017-12-06T10:55:18.045Z,20.5
2017-12-06T10:56:26.127Z,20.6
2017-12-06T10:57:34.230Z,20.5
2017-12-06T10:58:42.323Z,20.4
2017-12-06T10:59:50.410Z,20.3
2017-12-06T11:00:58.505Z,20.4
2017-12-06T11:02:06.600Z,20.5
2017-12-06T11:03:14.686Z,20.5
2017-12-06T11:04:22.787Z,20.4
2017-12-06T11:05:30.852Z,20.5
2017-12-06T11:06:38.941Z,20.5
2017-12-06T11:07:47.027Z,20.5
2017-12-06T11:08:55.110Z,20.5
2017-12-06T11:10:03.197Z,20.4
2017-12-06T11:11:11.283Z,20.3
2017-12-06T11:12:19.371Z,20.4
2017-12-06T11:13:27.452Z,20.4
2017-12-06T11:14:35.539Z,20.4
2017-12-06T11:15:43.639Z,20.4
2017-12-06T11:16:51.726Z,20.4
2017-12-06T11:17:59.813Z,20.4
2017-12-06T11:19:07.899Z,20.3
2017-12-06T11:20:15.984Z,20.2
2017-12-06T11:21:24.072Z,20.2
2017-12-06T11:22:32.151Z,20.3
2017-12-06T11:23:40.240Z,20.3
2017-12-06T11:24:48.320Z,20.2
2017-12-06T11:25:56.409Z,20.3
2017-12-06T11:27:04.491Z,20.1
2017-12-06T11:28:12.577Z,20.2
2017-12-06T11:29:20.662Z,20.2
2017-12-06T11:30:28.749Z,20.2
2017-12-06T11:31:36.832Z,20.2
2017-12-06T11:32:44.918Z,20.2
2017-12-06T11:33:53.003Z,20.2
2017-12-06T11:35:01.088Z,20.2
2017-12-06T11:36:09.172Z,20.1
2017-12-06T11:37:17.254Z,20.1
2017-12-06T11:38:25.340Z,20.1
2017-12-06T11:39:33.425Z,20.1
2017-12-06T11:40:41.511Z,20.0
2017-12-06T11:41:49.598Z,20.1
2017-12-06T11:42:57.682Z,20.1
2017-12-06T11:44:05.767Z,20.1
2017-12-06T11:45:13.919Z,20.1
2017-12-06T11:46:21.936Z,20.0
2017-12-06T11:47:30.020Z,20.1
2017-12-06T11:48:38.242Z,20.0
2017-12-06T11:49:46.347Z,20.0
2017-12-06T11:50:54.416Z,20.0
2017-12-06T11:52:02.499Z,20.0
2017-12-06T11:53:10.581Z,20.0
2017-12-06T11:54:18.666Z,20.0
2017-12-06T11:55:26.750Z,20.0
2017-12-06T11:56:34.833Z,19.9
2017-12-06T11:57:42.918Z,20.0
2017-12-06T11:58:51.004Z,20.0
2017-12-06T11:59:59.090Z,19.9
2017-12-06T12:01:07.174Z,19.9
2017-12-06T12:02:15.259Z,19.9
2017-12-06T12:03:23.344Z,19.9
2017-12-06T12:04:31.425Z,19.9
2017-12-06T12:05:39.511Z,19.9
2017-12-06T12:06:47.597Z,19.9
2017-12-06T12:07:55.679Z,19.9
2017-12-06T12:09:03.765Z,19.8
2017-12-06T12:10:11.852Z,19.8
2017-12-06T12:11:19.963Z,19.8
2017-12-06T12:12:28.023Z,19.8
2017-12-06T12:13:36.110Z,19.6
2017-12-06T12:14:44.194Z,19.8
2017-12-06T12:15:52.275Z,19.7
2017-12-06T12:17:00.360Z,19.7
2017-12-06T12:18:08.444Z,19.7
2017-12-06T12:19:16.531Z,19.7
2017-12-06T12:20:24.616Z,19.7
2017-12-06T12:21:32.701Z,19.7
2017-12-06T12:22:40.787Z,19.7
2017-12-06T12:23:48.872Z,19.7
2017-12-06T12:24:56.953Z,19.7
2017-12-06T12:26:05.045Z,19.7
2017-12-06T12:27:13.126Z,19.6
2017-12-06T12:28:21.209Z,19.7
2017-12-06T12:29:29.291Z,19.6
2017-12-06T12:30:37.379Z,19.7
2017-12-06T12:31:45.465Z,19.6
2017-12-06T12:32:53.549Z,19.6
2017-12-06T12:34:01.629Z,19.6
2017-12-06T12:35:09.715Z,19.6
2017-12-06T12:36:17.801Z,19.6
2017-12-06T12:37:25.884Z,19.6
2017-12-06T12:38:33.971Z,19.5
2017-12-06T12:39:42.056Z,19.5
2017-12-06T12:40:50.139Z,19.6
2017-12-06T12:41:58.225Z,19.5
2017-12-06T12:43:06.325Z,19.6
2017-12-06T12:44:14.390Z,19.5
2017-12-06T12:45:22.481Z,19.5
2017-12-06T12:46:30.570Z,19.5
2017-12-06T12:47:38.653Z,19.5
2017-12-06T12:48:46.738Z,19.4
2017-12-06T12:49:54.826Z,19.4
2017-12-06T12:51:02.907Z,19.5
2017-12-06T12:52:10.991Z,19.5
2017-12-06T12:53:19.072Z,19.4
2017-12-06T12:54:27.206Z,19.4
2017-12-06T12:55:35.242Z,19.4
2017-12-06T12:56:43.328Z,19.4
2017-12-06T12:57:51.465Z,19.4
2017-12-06T12:58:59.506Z,19.4
2017-12-06T13:00:07.582Z,19.4
2017-12-06T13:01:15.667Z,19.3
2017-12-06T13:02:23.750Z,19.3
2017-12-06T13:03:31.835Z,19.2
2017-12-06T13:04:39.920Z,19.3
2017-12-06T13:05:48.017Z,19.3
2017-12-06T13:06:56.102Z,19.2
2017-12-06T13:08:04.183Z,19.2
2017-12-06T13:09:12.277Z,19.2
2017-12-06T13:10:20.362Z,19.2
2017-12-06T13:11:28.454Z,19.2
2017-12-06T13:12:36.538Z,19.2
2017-12-06T13:13:44.625Z,19.1
2017-12-06T13:14:52.710Z,19.1
2017-12-06T13:16:00.793Z,19.2
2017-12-06T13:17:08.876Z,19.1
2017-12-06T13:18:16.962Z,19.1
2017-12-06T13:19:25.048Z,19.1
2017-12-06T13:20:33.135Z,19.1
2017-12-06T13:21:41.225Z,19.1
2017-12-06T13:22:49.306Z,19.1
2017-12-06T13:23:58.903Z,19.0
2017-12-06T13:25:06.990Z,19.0
2017-12-06T13:26:15.077Z,19.1
2017-12-06T13:27:23.161Z,19.0
2017-12-06T13:28:31.238Z,18.9
2017-12-06T13:29:39.325Z,18.9
2017-12-06T13:30:47.415Z,18.9
2017-12-06T13:31:55.495Z,19.0
2017-12-06T13:33:03.579Z,19.0
2017-12-06T13:34:11.661Z,19.0
2017-12-06T13:35:19.747Z,18.9
2017-12-06T13:36:27.839Z,18.9
2017-12-06T13:37:35.923Z,18.9
2017-12-06T13:38:43.999Z,18.9
2017-12-06T13:39:52.082Z,18.8
2017-12-06T13:41:00.168Z,18.9
2017-12-06T13:42:08.256Z,18.8
2017-12-06T13:43:16.335Z,18.8
2017-12-06T13:44:24.423Z,18.8
2017-12-06T13:45:32.767Z,18.8
2017-12-06T13:46:40.849Z,18.8
2017-12-06T13:47:48.939Z,18.8
2017-12-06T13:48:57.017Z,18.7
2017-12-06T13:50:05.102Z,18.7
2017-12-06T13:51:13.181Z,18.8
2017-12-06T13:52:21.273Z,18.8
2017-12-06T13:53:29.352Z,18.6
2017-12-06T13:54:37.440Z,18.8
2017-12-06T13:55:45.523Z,18.7
2017-12-06T13:56:53.668Z,18.7
2017-12-06T13:58:01.753Z,18.7
2017-12-06T13:59:09.841Z,18.7
2017-12-06T14:00:17.926Z,18.7
2017-12-06T14:01:26.003Z,18.7
2017-12-06T14:02:34.086Z,18.6
2017-12-06T14:03:42.171Z,18.7
2017-12-06T14:04:50.252Z,18.7
2017-12-06T14:05:58.336Z,18.7
2017-12-06T14:07:06.422Z,18.6
2017-12-06T14:08:14.508Z,18.7
2017-12-06T14:09:22.591Z,18.6
2017-12-06T14:10:30.674Z,18.7
2017-12-06T14:11:38.758Z,18.5
2017-12-06T14:12:46.850Z,18.6
2017-12-06T14:13:54.977Z,18.7
2017-12-06T14:15:03.019Z,18.6
2017-12-06T14:16:11.103Z,18.6
2017-12-06T14:17:19.189Z,18.6
2017-12-06T14:18:27.273Z,18.6
2017-12-06T14:19:35.436Z,18.6
2017-12-06T14:20:43.517Z,18.7
2017-12-06T14:21:51.597Z,18.6
2017-12-06T14:22:59.683Z,18.6
2017-12-06T14:24:07.766Z,18.6
2017-12-06T14:25:15.852Z,18.7
2017-12-06T14:26:23.935Z,18.7
2017-12-06T14:27:32.020Z,18.7
2017-12-06T14:28:40.103Z,18.7
2017-12-06T14:29:48.186Z,18.7
2017-12-06T14:30:56.269Z,18.6
2017-12-06T14:32:04.356Z,18.6
2017-12-06T14:32:04.372Z,18.6
2017-12-06T14:33:12.437Z,18.7
2017-12-06T14:34:20.522Z,18.8
2017-12-06T14:35:28.621Z,18.7
2017-12-06T14:36:36.689Z,18.8
2017-12-06T14:37:44.772Z,18.7
2017-12-06T14:38:52.853Z,18.8
2017-12-06T14:40:00.948Z,18.8
2017-12-06T14:41:09.024Z,18.8
2017-12-06T14:42:17.106Z,18.8
2017-12-06T14:43:25.194Z,18.7
2017-12-06T14:44:33.277Z,18.9
2017-12-06T14:45:41.361Z,18.8
2017-12-06T14:46:49.445Z,18.8
2017-12-06T14:47:57.531Z,18.8
2017-12-06T14:49:05.623Z,18.9
2017-12-06T14:50:13.701Z,18.9
2017-12-06T14:51:21.781Z,18.9
2017-12-06T14:52:29.861Z,18.9
2017-12-06T14:53:37.947Z,19.1
2017-12-06T14:54:46.033Z,19.1
2017-12-06T14:55:54.130Z,19.1
2017-12-06T14:57:02.208Z,19.1
2017-12-06T14:58:10.293Z,19.1
2017-12-06T14:59:18.375Z,19.1
2017-12-06T15:00:26.463Z,19.1
2017-12-06T15:01:34.546Z,19.2
2017-12-06T15:02:42.633Z,19.2
2017-12-06T15:03:50.715Z,19.2
2017-12-06T15:04:58.799Z,19.3